sensor_id;sensor_type;location;lat;lon;timestamp;P1;durP1;ratioP1;P2;durP2;ratioP2
50968;SDS011;36982;51.474;7.228;2023-07-22T00:01:09;8.30;;;6.23;;
50968;SDS011;36982;51.474;7.228;2023-07-22T00:03:35;8.20;;;5.97;;
50968;SDS011;36982;51.474;7.228;2023-07-22T00:06:07;8.57;;;5.63;;
50968;SDS011;36982;51.474;7.228;2023-07-22T00:08:35;7.73;;;5.67;;
50968;SDS011;36982;51.474;7.228;2023-07-22T00:11:02;8.40;;;6.20;;
50968;SDS011;36982;51.474;7.228;2023-07-22T00:13:28;10.23;;;5.70;;
50968;SDS011;36982;51.474;7.228;2023-07-22T00:15:54;8.63;;;5.90;;
50968;SDS011;36982;51.474;7.228;2023-07-22T00:18:20;7.30;;;5.73;;
50968;SDS011;36982;51.474;7.228;2023-07-22T00:20:47;7.70;;;6.20;;
50968;SDS011;36982;51.474;7.228;2023-07-22T00:23:12;9.57;;;6.47;;
50968;SDS011;36982;51.474;7.228;2023-07-22T00:25:40;7.23;;;5.67;;
50968;SDS011;36982;51.474;7.228;2023-07-22T00:28:06;8.60;;;6.53;;
50968;SDS011;36982;51.474;7.228;2023-07-22T00:30:32;7.90;;;5.73;;
50968;SDS011;36982;51.474;7.228;2023-07-22T00:32:57;7.47;;;5.70;;
50968;SDS011;36982;51.474;7.228;2023-07-22T00:35:23;10.10;;;6.63;;
50968;SDS011;36982;51.474;7.228;2023-07-22T00:37:48;8.83;;;6.03;;
50968;SDS011;36982;51.474;7.228;2023-07-22T00:40:14;8.67;;;6.50;;
50968;SDS011;36982;51.474;7.228;2023-07-22T00:42:40;8.90;;;6.07;;
50968;SDS011;36982;51.474;7.228;2023-07-22T00:45:06;8.80;;;6.77;;
50968;SDS011;36982;51.474;7.228;2023-07-22T00:47:33;8.90;;;5.67;;
50968;SDS011;36982;51.474;7.228;2023-07-22T00:49:59;8.40;;;5.93;;
50968;SDS011;36982;51.474;7.228;2023-07-22T00:52:27;10.67;;;6.23;;
50968;SDS011;36982;51.474;7.228;2023-07-22T00:54:53;8.47;;;5.90;;
50968;SDS011;36982;51.474;7.228;2023-07-22T00:57:20;9.10;;;6.40;;
50968;SDS011;36982;51.474;7.228;2023-07-22T00:59:46;7.50;;;6.07;;
50968;SDS011;36982;51.474;7.228;2023-07-22T01:02:12;7.00;;;5.53;;
50968;SDS011;36982;51.474;7.228;2023-07-22T01:04:38;7.27;;;6.10;;
50968;SDS011;36982;51.474;7.228;2023-07-22T01:07:04;8.37;;;5.73;;
50968;SDS011;36982;51.474;7.228;2023-07-22T01:09:37;8.83;;;6.00;;
50968;SDS011;36982;51.474;7.228;2023-07-22T01:12:03;13.00;;;6.27;;
50968;SDS011;36982;51.474;7.228;2023-07-22T01:14:33;8.57;;;5.83;;
50968;SDS011;36982;51.474;7.228;2023-07-22T01:17:03;6.87;;;5.37;;
50968;SDS011;36982;51.474;7.228;2023-07-22T01:19:31;8.13;;;5.93;;
50968;SDS011;36982;51.474;7.228;2023-07-22T01:21:59;7.47;;;5.50;;
50968;SDS011;36982;51.474;7.228;2023-07-22T01:24:27;11.40;;;6.17;;
50968;SDS011;36982;51.474;7.228;2023-07-22T01:26:53;8.30;;;6.33;;
50968;SDS011;36982;51.474;7.228;2023-07-22T01:29:19;9.60;;;6.23;;
50968;SDS011;36982;51.474;7.228;2023-07-22T01:31:47;8.27;;;6.00;;
50968;SDS011;36982;51.474;7.228;2023-07-22T01:34:15;9.63;;;6.07;;
50968;SDS011;36982;51.474;7.228;2023-07-22T01:36:41;8.23;;;5.97;;
50968;SDS011;36982;51.474;7.228;2023-07-22T01:39:08;7.93;;;6.03;;
50968;SDS011;36982;51.474;7.228;2023-07-22T01:41:34;7.80;;;5.87;;
50968;SDS011;36982;51.474;7.228;2023-07-22T01:44:00;9.13;;;6.40;;
50968;SDS011;36982;51.474;7.228;2023-07-22T01:46:25;10.17;;;6.03;;
50968;SDS011;36982;51.474;7.228;2023-07-22T01:48:51;11.73;;;6.47;;
50968;SDS011;36982;51.474;7.228;2023-07-22T01:51:16;9.07;;;6.20;;
50968;SDS011;36982;51.474;7.228;2023-07-22T01:53:42;10.00;;;6.10;;
50968;SDS011;36982;51.474;7.228;2023-07-22T01:56:08;7.80;;;5.77;;
50968;SDS011;36982;51.474;7.228;2023-07-22T01:58:33;7.00;;;5.57;;
50968;SDS011;36982;51.474;7.228;2023-07-22T02:00:59;9.57;;;6.07;;
50968;SDS011;36982;51.474;7.228;2023-07-22T02:03:25;7.47;;;5.10;;
50968;SDS011;36982;51.474;7.228;2023-07-22T02:05:50;7.67;;;5.60;;
50968;SDS011;36982;51.474;7.228;2023-07-22T02:08:16;10.67;;;5.70;;
50968;SDS011;36982;51.474;7.228;2023-07-22T02:10:42;9.20;;;6.27;;
50968;SDS011;36982;51.474;7.228;2023-07-22T02:13:07;9.53;;;5.87;;
50968;SDS011;36982;51.474;7.228;2023-07-22T02:15:34;7.50;;;5.77;;
50968;SDS011;36982;51.474;7.228;2023-07-22T02:17:59;8.77;;;6.07;;
50968;SDS011;36982;51.474;7.228;2023-07-22T02:20:25;9.77;;;6.00;;
50968;SDS011;36982;51.474;7.228;2023-07-22T02:22:53;8.47;;;5.83;;
50968;SDS011;36982;51.474;7.228;2023-07-22T02:25:19;8.23;;;6.00;;
50968;SDS011;36982;51.474;7.228;2023-07-22T02:27:45;8.57;;;6.30;;
50968;SDS011;36982;51.474;7.228;2023-07-22T02:30:11;6.73;;;5.20;;
50968;SDS011;36982;51.474;7.228;2023-07-22T02:32:40;7.77;;;6.10;;
50968;SDS011;36982;51.474;7.228;2023-07-22T02:35:06;9.60;;;6.10;;
50968;SDS011;36982;51.474;7.228;2023-07-22T02:37:33;8.20;;;5.90;;
50968;SDS011;36982;51.474;7.228;2023-07-22T02:39:59;8.87;;;5.77;;
50968;SDS011;36982;51.474;7.228;2023-07-22T02:42:25;6.57;;;5.57;;
50968;SDS011;36982;51.474;7.228;2023-07-22T02:44:50;8.90;;;6.27;;
50968;SDS011;36982;51.474;7.228;2023-07-22T02:47:16;8.40;;;5.90;;
50968;SDS011;36982;51.474;7.228;2023-07-22T02:49:43;8.67;;;5.93;;
50968;SDS011;36982;51.474;7.228;2023-07-22T02:52:08;10.00;;;6.70;;
50968;SDS011;36982;51.474;7.228;2023-07-22T02:54:38;9.53;;;6.33;;
50968;SDS011;36982;51.474;7.228;2023-07-22T02:57:05;8.43;;;5.77;;
50968;SDS011;36982;51.474;7.228;2023-07-22T02:59:31;12.17;;;6.00;;
50968;SDS011;36982;51.474;7.228;2023-07-22T03:01:58;10.23;;;5.93;;
50968;SDS011;36982;51.474;7.228;2023-07-22T03:04:23;7.70;;;5.80;;
50968;SDS011;36982;51.474;7.228;2023-07-22T03:06:49;8.67;;;5.70;;
50968;SDS011;36982;51.474;7.228;2023-07-22T03:09:15;10.17;;;6.20;;
50968;SDS011;36982;51.474;7.228;2023-07-22T03:11:40;8.93;;;6.43;;
50968;SDS011;36982;51.474;7.228;2023-07-22T03:14:06;8.77;;;6.10;;
50968;SDS011;36982;51.474;7.228;2023-07-22T03:16:31;11.33;;;6.70;;
50968;SDS011;36982;51.474;7.228;2023-07-22T03:18:57;8.97;;;6.30;;
50968;SDS011;36982;51.474;7.228;2023-07-22T03:21:22;10.00;;;6.70;;
50968;SDS011;36982;51.474;7.228;2023-07-22T03:23:48;7.43;;;5.93;;
50968;SDS011;36982;51.474;7.228;2023-07-22T03:26:14;8.73;;;6.37;;
50968;SDS011;36982;51.474;7.228;2023-07-22T03:28:40;7.97;;;6.07;;
50968;SDS011;36982;51.474;7.228;2023-07-22T03:31:06;7.50;;;6.23;;
50968;SDS011;36982;51.474;7.228;2023-07-22T03:33:33;9.20;;;6.33;;
50968;SDS011;36982;51.474;7.228;2023-07-22T03:35:59;9.07;;;6.30;;
50968;SDS011;36982;51.474;7.228;2023-07-22T03:38:26;10.13;;;5.90;;
50968;SDS011;36982;51.474;7.228;2023-07-22T03:40:51;10.27;;;6.40;;
50968;SDS011;36982;51.474;7.228;2023-07-22T03:43:20;8.47;;;5.77;;
50968;SDS011;36982;51.474;7.228;2023-07-22T03:45:46;8.63;;;5.73;;
50968;SDS011;36982;51.474;7.228;2023-07-22T03:48:11;10.67;;;6.07;;
50968;SDS011;36982;51.474;7.228;2023-07-22T03:50:37;10.07;;;5.53;;
50968;SDS011;36982;51.474;7.228;2023-07-22T03:53:02;7.80;;;5.80;;
50968;SDS011;36982;51.474;7.228;2023-07-22T03:55:28;8.37;;;5.67;;
50968;SDS011;36982;51.474;7.228;2023-07-22T03:57:53;9.40;;;5.67;;
50968;SDS011;36982;51.474;7.228;2023-07-22T04:00:20;11.50;;;5.87;;
50968;SDS011;36982;51.474;7.228;2023-07-22T04:02:46;6.73;;;5.43;;
50968;SDS011;36982;51.474;7.228;2023-07-22T04:05:11;9.07;;;5.87;;
50968;SDS011;36982;51.474;7.228;2023-07-22T04:07:37;7.70;;;5.27;;
50968;SDS011;36982;51.474;7.228;2023-07-22T04:10:03;6.57;;;4.93;;
50968;SDS011;36982;51.474;7.228;2023-07-22T04:12:30;7.73;;;5.60;;
50968;SDS011;36982;51.474;7.228;2023-07-22T04:14:55;6.13;;;5.37;;
50968;SDS011;36982;51.474;7.228;2023-07-22T04:17:21;9.00;;;5.13;;
50968;SDS011;36982;51.474;7.228;2023-07-22T04:19:47;8.30;;;5.43;;
50968;SDS011;36982;51.474;7.228;2023-07-22T04:22:12;6.97;;;5.30;;
50968;SDS011;36982;51.474;7.228;2023-07-22T04:24:38;8.60;;;5.47;;
50968;SDS011;36982;51.474;7.228;2023-07-22T04:27:03;7.27;;;5.10;;
50968;SDS011;36982;51.474;7.228;2023-07-22T04:29:29;6.30;;;4.70;;
50968;SDS011;36982;51.474;7.228;2023-07-22T04:31:59;7.07;;;5.10;;
50968;SDS011;36982;51.474;7.228;2023-07-22T04:34:31;7.73;;;5.40;;
50968;SDS011;36982;51.474;7.228;2023-07-22T04:36:57;7.03;;;4.97;;
50968;SDS011;36982;51.474;7.228;2023-07-22T04:39:23;8.00;;;6.07;;
50968;SDS011;36982;51.474;7.228;2023-07-22T04:41:49;8.83;;;5.43;;
50968;SDS011;36982;51.474;7.228;2023-07-22T04:44:15;8.97;;;5.60;;
50968;SDS011;36982;51.474;7.228;2023-07-22T04:46:40;6.83;;;5.30;;
50968;SDS011;36982;51.474;7.228;2023-07-22T04:49:06;9.60;;;6.43;;
50968;SDS011;36982;51.474;7.228;2023-07-22T04:51:31;6.63;;;4.67;;
50968;SDS011;36982;51.474;7.228;2023-07-22T04:53:57;8.27;;;5.60;;
50968;SDS011;36982;51.474;7.228;2023-07-22T04:56:23;8.17;;;5.70;;
50968;SDS011;36982;51.474;7.228;2023-07-22T04:58:48;8.93;;;5.47;;
50968;SDS011;36982;51.474;7.228;2023-07-22T05:01:14;8.03;;;5.47;;
50968;SDS011;36982;51.474;7.228;2023-07-22T05:03:40;7.67;;;5.87;;
50968;SDS011;36982;51.474;7.228;2023-07-22T05:06:06;8.27;;;5.57;;
50968;SDS011;36982;51.474;7.228;2023-07-22T05:08:33;7.40;;;5.47;;
50968;SDS011;36982;51.474;7.228;2023-07-22T05:10:59;7.97;;;5.43;;
50968;SDS011;36982;51.474;7.228;2023-07-22T05:13:25;6.23;;;4.63;;
50968;SDS011;36982;51.474;7.228;2023-07-22T05:15:50;9.90;;;6.47;;
50968;SDS011;36982;51.474;7.228;2023-07-22T05:18:16;8.30;;;4.93;;
50968;SDS011;36982;51.474;7.228;2023-07-22T05:20:42;11.00;;;4.77;;
50968;SDS011;36982;51.474;7.228;2023-07-22T05:23:07;6.70;;;5.17;;
50968;SDS011;36982;51.474;7.228;2023-07-22T05:25:33;6.97;;;4.33;;
50968;SDS011;36982;51.474;7.228;2023-07-22T05:27:58;6.73;;;4.80;;
50968;SDS011;36982;51.474;7.228;2023-07-22T05:30:24;10.03;;;4.90;;
50968;SDS011;36982;51.474;7.228;2023-07-22T05:32:52;8.87;;;5.40;;
50968;SDS011;36982;51.474;7.228;2023-07-22T05:35:18;7.33;;;5.00;;
50968;SDS011;36982;51.474;7.228;2023-07-22T05:37:44;6.80;;;4.77;;
50968;SDS011;36982;51.474;7.228;2023-07-22T05:40:10;6.40;;;4.80;;
50968;SDS011;36982;51.474;7.228;2023-07-22T05:42:36;10.47;;;5.77;;
50968;SDS011;36982;51.474;7.228;2023-07-22T05:45:02;6.50;;;4.80;;
50968;SDS011;36982;51.474;7.228;2023-07-22T05:47:27;6.33;;;4.90;;
50968;SDS011;36982;51.474;7.228;2023-07-22T05:49:53;6.63;;;4.77;;
50968;SDS011;36982;51.474;7.228;2023-07-22T05:52:19;8.20;;;4.37;;
50968;SDS011;36982;51.474;7.228;2023-07-22T05:54:44;6.15;;;4.62;;
50968;SDS011;36982;51.474;7.228;2023-07-22T05:57:10;5.53;;;4.30;;
50968;SDS011;36982;51.474;7.228;2023-07-22T05:59:35;6.93;;;4.50;;
50968;SDS011;36982;51.474;7.228;2023-07-22T06:02:02;6.32;;;4.40;;
50968;SDS011;36982;51.474;7.228;2023-07-22T06:04:28;9.00;;;4.68;;
50968;SDS011;36982;51.474;7.228;2023-07-22T06:06:54;6.32;;;4.90;;
50968;SDS011;36982;51.474;7.228;2023-07-22T06:09:19;5.80;;;4.22;;
50968;SDS011;36982;51.474;7.228;2023-07-22T06:11:46;6.12;;;4.80;;
50968;SDS011;36982;51.474;7.228;2023-07-22T06:14:11;8.25;;;4.90;;
50968;SDS011;36982;51.474;7.228;2023-07-22T06:16:37;6.07;;;4.72;;
50968;SDS011;36982;51.474;7.228;2023-07-22T06:19:03;8.35;;;5.10;;
50968;SDS011;36982;51.474;7.228;2023-07-22T06:21:29;5.90;;;4.85;;
50968;SDS011;36982;51.474;7.228;2023-07-22T06:23:54;6.10;;;4.62;;
50968;SDS011;36982;51.474;7.228;2023-07-22T06:26:20;6.45;;;4.72;;
50968;SDS011;36982;51.474;7.228;2023-07-22T06:28:45;5.90;;;4.43;;
50968;SDS011;36982;51.474;7.228;2023-07-22T06:31:11;5.87;;;4.72;;
50968;SDS011;36982;51.474;7.228;2023-07-22T06:33:37;6.30;;;4.60;;
50968;SDS011;36982;51.474;7.228;2023-07-22T06:36:02;5.82;;;4.85;;
50968;SDS011;36982;51.474;7.228;2023-07-22T06:38:28;6.87;;;5.00;;
50968;SDS011;36982;51.474;7.228;2023-07-22T06:40:54;5.87;;;4.30;;
50968;SDS011;36982;51.474;7.228;2023-07-22T06:43:20;7.10;;;4.57;;
50968;SDS011;36982;51.474;7.228;2023-07-22T06:45:45;8.50;;;5.15;;
50968;SDS011;36982;51.474;7.228;2023-07-22T06:48:11;7.22;;;5.40;;
50968;SDS011;36982;51.474;7.228;2023-07-22T06:50:36;8.05;;;5.15;;
50968;SDS011;36982;51.474;7.228;2023-07-22T06:53:02;6.20;;;4.82;;
50968;SDS011;36982;51.474;7.228;2023-07-22T06:55:28;8.35;;;5.62;;
50968;SDS011;36982;51.474;7.228;2023-07-22T06:57:57;7.22;;;5.80;;
50968;SDS011;36982;51.474;7.228;2023-07-22T07:00:23;8.38;;;5.45;;
50968;SDS011;36982;51.474;7.228;2023-07-22T07:02:49;8.30;;;5.90;;
50968;SDS011;36982;51.474;7.228;2023-07-22T07:05:14;8.05;;;6.07;;
50968;SDS011;36982;51.474;7.228;2023-07-22T07:07:42;8.30;;;5.97;;
50968;SDS011;36982;51.474;7.228;2023-07-22T07:10:07;6.40;;;5.60;;
50968;SDS011;36982;51.474;7.228;2023-07-22T07:12:33;7.40;;;6.25;;
50968;SDS011;36982;51.474;7.228;2023-07-22T07:14:59;10.25;;;6.20;;
50968;SDS011;36982;51.474;7.228;2023-07-22T07:17:25;7.35;;;6.12;;
50968;SDS011;36982;51.474;7.228;2023-07-22T07:19:51;7.93;;;5.90;;
50968;SDS011;36982;51.474;7.228;2023-07-22T07:22:16;9.00;;;5.68;;
50968;SDS011;36982;51.474;7.228;2023-07-22T07:24:42;7.95;;;5.62;;
50968;SDS011;36982;51.474;7.228;2023-07-22T07:27:07;8.27;;;5.60;;
50968;SDS011;36982;51.474;7.228;2023-07-22T07:29:33;13.15;;;5.72;;
50968;SDS011;36982;51.474;7.228;2023-07-22T07:31:58;9.50;;;5.68;;
50968;SDS011;36982;51.474;7.228;2023-07-22T07:34:24;7.97;;;5.50;;
50968;SDS011;36982;51.474;7.228;2023-07-22T07:36:49;10.38;;;5.80;;
50968;SDS011;36982;51.474;7.228;2023-07-22T07:39:15;7.50;;;5.47;;
50968;SDS011;36982;51.474;7.228;2023-07-22T07:41:41;6.80;;;5.22;;
50968;SDS011;36982;51.474;7.228;2023-07-22T07:44:06;6.10;;;5.25;;
50968;SDS011;36982;51.474;7.228;2023-07-22T07:46:32;8.15;;;5.35;;
50968;SDS011;36982;51.474;7.228;2023-07-22T07:48:58;9.02;;;5.70;;
50968;SDS011;36982;51.474;7.228;2023-07-22T07:51:28;7.95;;;5.90;;
50968;SDS011;36982;51.474;7.228;2023-07-22T07:53:56;7.12;;;5.68;;
50968;SDS011;36982;51.474;7.228;2023-07-22T07:56:23;6.57;;;5.50;;
50968;SDS011;36982;51.474;7.228;2023-07-22T07:58:50;7.25;;;6.03;;
50968;SDS011;36982;51.474;7.228;2023-07-22T08:01:17;8.57;;;5.90;;
50968;SDS011;36982;51.474;7.228;2023-07-22T08:03:43;9.02;;;6.12;;
50968;SDS011;36982;51.474;7.228;2023-07-22T08:06:10;7.37;;;5.90;;
50968;SDS011;36982;51.474;7.228;2023-07-22T08:08:36;8.93;;;6.18;;
50968;SDS011;36982;51.474;7.228;2023-07-22T08:11:03;8.50;;;6.05;;
50968;SDS011;36982;51.474;7.228;2023-07-22T08:13:33;8.75;;;5.47;;
50968;SDS011;36982;51.474;7.228;2023-07-22T08:16:03;8.15;;;6.57;;
50968;SDS011;36982;51.474;7.228;2023-07-22T08:18:30;8.30;;;6.22;;
50968;SDS011;36982;51.474;7.228;2023-07-22T08:20:57;8.00;;;6.07;;
50968;SDS011;36982;51.474;7.228;2023-07-22T08:23:23;8.63;;;6.47;;
50968;SDS011;36982;51.474;7.228;2023-07-22T08:25:48;8.32;;;6.40;;
50968;SDS011;36982;51.474;7.228;2023-07-22T08:28:14;11.65;;;6.20;;
50968;SDS011;36982;51.474;7.228;2023-07-22T08:30:40;7.65;;;6.05;;
50968;SDS011;36982;51.474;7.228;2023-07-22T08:33:07;8.77;;;6.80;;
50968;SDS011;36982;51.474;7.228;2023-07-22T08:35:34;9.57;;;6.35;;
50968;SDS011;36982;51.474;7.228;2023-07-22T08:38:04;8.32;;;6.05;;
50968;SDS011;36982;51.474;7.228;2023-07-22T08:40:33;8.68;;;6.22;;
50968;SDS011;36982;51.474;7.228;2023-07-22T08:43:00;8.43;;;6.32;;
50968;SDS011;36982;51.474;7.228;2023-07-22T08:45:28;9.68;;;6.12;;
50968;SDS011;36982;51.474;7.228;2023-07-22T08:47:57;7.45;;;6.05;;
50968;SDS011;36982;51.474;7.228;2023-07-22T08:50:26;9.80;;;6.35;;
50968;SDS011;36982;51.474;7.228;2023-07-22T08:52:55;9.13;;;6.47;;
50968;SDS011;36982;51.474;7.228;2023-07-22T08:55:22;8.38;;;6.32;;
50968;SDS011;36982;51.474;7.228;2023-07-22T08:57:48;6.82;;;5.93;;
50968;SDS011;36982;51.474;7.228;2023-07-22T09:00:16;8.20;;;6.45;;
50968;SDS011;36982;51.474;7.228;2023-07-22T09:02:41;7.93;;;5.80;;
50968;SDS011;36982;51.474;7.228;2023-07-22T09:05:07;9.48;;;6.22;;
50968;SDS011;36982;51.474;7.228;2023-07-22T09:07:36;9.30;;;6.32;;
50968;SDS011;36982;51.474;7.228;2023-07-22T09:10:04;8.98;;;6.22;;
50968;SDS011;36982;51.474;7.228;2023-07-22T09:12:32;6.53;;;5.68;;
50968;SDS011;36982;51.474;7.228;2023-07-22T09:15:05;8.75;;;5.85;;
50968;SDS011;36982;51.474;7.228;2023-07-22T09:17:36;8.90;;;5.70;;
50968;SDS011;36982;51.474;7.228;2023-07-22T09:20:02;6.82;;;5.43;;
50968;SDS011;36982;51.474;7.228;2023-07-22T09:22:28;9.43;;;7.40;;
50968;SDS011;36982;51.474;7.228;2023-07-22T09:25:06;6.65;;;5.95;;
50968;SDS011;36982;51.474;7.228;2023-07-22T09:27:41;6.72;;;5.43;;
50968;SDS011;36982;51.474;7.228;2023-07-22T09:30:29;11.73;;;6.15;;
50968;SDS011;36982;51.474;7.228;2023-07-22T09:33:02;8.95;;;6.07;;
50968;SDS011;36982;51.474;7.228;2023-07-22T09:35:29;8.68;;;5.68;;
50968;SDS011;36982;51.474;7.228;2023-07-22T09:37:58;6.10;;;4.57;;
50968;SDS011;36982;51.474;7.228;2023-07-22T09:40:25;8.10;;;4.55;;
50968;SDS011;36982;51.474;7.228;2023-07-22T09:42:55;5.18;;;4.12;;
50968;SDS011;36982;51.474;7.228;2023-07-22T09:45:25;6.93;;;4.20;;
50968;SDS011;36982;51.474;7.228;2023-07-22T09:47:55;6.87;;;4.82;;
50968;SDS011;36982;51.474;7.228;2023-07-22T09:50:24;5.68;;;4.30;;
50968;SDS011;36982;51.474;7.228;2023-07-22T09:52:51;6.15;;;4.78;;
50968;SDS011;36982;51.474;7.228;2023-07-22T09:55:22;5.07;;;3.92;;
50968;SDS011;36982;51.474;7.228;2023-07-22T09:57:50;7.78;;;4.55;;
50968;SDS011;36982;51.474;7.228;2023-07-22T10:00:24;7.40;;;5.07;;
50968;SDS011;36982;51.474;7.228;2023-07-22T10:02:52;5.72;;;4.35;;
50968;SDS011;36982;51.474;7.228;2023-07-22T10:05:22;7.35;;;4.68;;
50968;SDS011;36982;51.474;7.228;2023-07-22T10:07:53;5.45;;;4.60;;
50968;SDS011;36982;51.474;7.228;2023-07-22T10:10:21;5.95;;;4.87;;
50968;SDS011;36982;51.474;7.228;2023-07-22T10:13:03;5.85;;;4.72;;
50968;SDS011;36982;51.474;7.228;2023-07-22T10:15:30;11.35;;;6.25;;
50968;SDS011;36982;51.474;7.228;2023-07-22T10:18:00;6.57;;;4.60;;
50968;SDS011;36982;51.474;7.228;2023-07-22T10:20:27;7.80;;;5.93;;
50968;SDS011;36982;51.474;7.228;2023-07-22T10:22:54;6.78;;;5.05;;
50968;SDS011;36982;51.474;7.228;2023-07-22T10:25:20;5.87;;;5.03;;
50968;SDS011;36982;51.474;7.228;2023-07-22T10:27:48;6.03;;;3.65;;
50968;SDS011;36982;51.474;7.228;2023-07-22T10:30:14;5.43;;;3.87;;
50968;SDS011;36982;51.474;7.228;2023-07-22T10:32:42;5.03;;;3.80;;
50968;SDS011;36982;51.474;7.228;2023-07-22T10:35:17;6.30;;;3.90;;
50968;SDS011;36982;51.474;7.228;2023-07-22T10:37:46;6.30;;;4.22;;
50968;SDS011;36982;51.474;7.228;2023-07-22T10:43:04;8.18;;;4.90;;
50968;SDS011;36982;51.474;7.228;2023-07-22T10:45:32;5.90;;;4.28;;
50968;SDS011;36982;51.474;7.228;2023-07-22T10:50:47;5.85;;;4.47;;
50968;SDS011;36982;51.474;7.228;2023-07-22T10:53:27;5.90;;;3.85;;
50968;SDS011;36982;51.474;7.228;2023-07-22T11:01:23;7.90;;;5.60;;
50968;SDS011;36982;51.474;7.228;2023-07-22T11:06:32;3.83;;;3.15;;
50968;SDS011;36982;51.474;7.228;2023-07-22T11:08:59;4.57;;;3.65;;
50968;SDS011;36982;51.474;7.228;2023-07-22T11:11:38;6.05;;;3.50;;
50968;SDS011;36982;51.474;7.228;2023-07-22T11:14:18;4.55;;;3.20;;
50968;SDS011;36982;51.474;7.228;2023-07-22T11:16:46;4.85;;;3.72;;
50968;SDS011;36982;51.474;7.228;2023-07-22T11:19:13;5.15;;;3.15;;
50968;SDS011;36982;51.474;7.228;2023-07-22T11:21:40;4.47;;;2.65;;
50968;SDS011;36982;51.474;7.228;2023-07-22T11:24:07;5.75;;;2.55;;
50968;SDS011;36982;51.474;7.228;2023-07-22T11:26:33;5.57;;;3.15;;
50968;SDS011;36982;51.474;7.228;2023-07-22T11:28:59;4.75;;;2.10;;
50968;SDS011;36982;51.474;7.228;2023-07-22T11:31:37;3.72;;;2.72;;
50968;SDS011;36982;51.474;7.228;2023-07-22T11:34:07;3.55;;;2.60;;
50968;SDS011;36982;51.474;7.228;2023-07-22T11:36:40;3.92;;;2.50;;
50968;SDS011;36982;51.474;7.228;2023-07-22T11:39:11;2.75;;;2.47;;
50968;SDS011;36982;51.474;7.228;2023-07-22T11:41:38;7.07;;;3.72;;
50968;SDS011;36982;51.474;7.228;2023-07-22T11:44:06;3.20;;;2.47;;
50968;SDS011;36982;51.474;7.228;2023-07-22T11:46:34;3.78;;;2.47;;
50968;SDS011;36982;51.474;7.228;2023-07-22T11:49:12;2.53;;;2.15;;
50968;SDS011;36982;51.474;7.228;2023-07-22T11:51:41;3.35;;;2.70;;
50968;SDS011;36982;51.474;7.228;2023-07-22T11:54:08;4.43;;;2.37;;
50968;SDS011;36982;51.474;7.228;2023-07-22T11:56:33;4.62;;;2.65;;
50968;SDS011;36982;51.474;7.228;2023-07-22T11:58:59;4.07;;;1.90;;
50968;SDS011;36982;51.474;7.228;2023-07-22T12:01:27;3.17;;;2.40;;
50968;SDS011;36982;51.474;7.228;2023-07-22T12:03:57;3.12;;;2.20;;
50968;SDS011;36982;51.474;7.228;2023-07-22T12:06:26;2.75;;;2.10;;
50968;SDS011;36982;51.474;7.228;2023-07-22T12:08:52;2.75;;;2.47;;
50968;SDS011;36982;51.474;7.228;2023-07-22T12:11:19;2.17;;;1.85;;
50968;SDS011;36982;51.474;7.228;2023-07-22T12:13:46;4.62;;;2.40;;
50968;SDS011;36982;51.474;7.228;2023-07-22T12:16:20;4.12;;;2.40;;
50968;SDS011;36982;51.474;7.228;2023-07-22T12:18:48;3.20;;;2.22;;
50968;SDS011;36982;51.474;7.228;2023-07-22T12:21:14;5.10;;;2.53;;
50968;SDS011;36982;51.474;7.228;2023-07-22T12:23:40;3.75;;;2.78;;
50968;SDS011;36982;51.474;7.228;2023-07-22T12:26:07;3.97;;;3.00;;
50968;SDS011;36982;51.474;7.228;2023-07-22T12:28:33;3.60;;;2.67;;
50968;SDS011;36982;51.474;7.228;2023-07-22T12:30:59;3.78;;;2.22;;
50968;SDS011;36982;51.474;7.228;2023-07-22T12:33:25;2.37;;;2.00;;
50968;SDS011;36982;51.474;7.228;2023-07-22T12:35:53;3.08;;;2.10;;
50968;SDS011;36982;51.474;7.228;2023-07-22T12:38:19;4.00;;;2.05;;
50968;SDS011;36982;51.474;7.228;2023-07-22T12:40:45;5.00;;;2.03;;
50968;SDS011;36982;51.474;7.228;2023-07-22T12:43:11;2.85;;;1.98;;
50968;SDS011;36982;51.474;7.228;2023-07-22T12:45:36;2.83;;;2.30;;
50968;SDS011;36982;51.474;7.228;2023-07-22T12:48:02;3.22;;;2.42;;
50968;SDS011;36982;51.474;7.228;2023-07-22T12:50:32;3.53;;;2.42;;
50968;SDS011;36982;51.474;7.228;2023-07-22T12:52:58;3.80;;;1.60;;
50968;SDS011;36982;51.474;7.228;2023-07-22T12:55:24;3.17;;;2.03;;
50968;SDS011;36982;51.474;7.228;2023-07-22T12:57:50;2.50;;;1.85;;
50968;SDS011;36982;51.474;7.228;2023-07-22T13:00:16;3.75;;;2.25;;
50968;SDS011;36982;51.474;7.228;2023-07-22T13:02:42;2.70;;;2.10;;
50968;SDS011;36982;51.474;7.228;2023-07-22T13:05:07;4.18;;;2.12;;
50968;SDS011;36982;51.474;7.228;2023-07-22T13:07:34;3.65;;;1.90;;
50968;SDS011;36982;51.474;7.228;2023-07-22T13:10:00;3.30;;;2.78;;
50968;SDS011;36982;51.474;7.228;2023-07-22T13:12:36;2.75;;;2.00;;
50968;SDS011;36982;51.474;7.228;2023-07-22T13:15:02;3.72;;;2.37;;
50968;SDS011;36982;51.474;7.228;2023-07-22T13:17:28;2.37;;;2.10;;
50968;SDS011;36982;51.474;7.228;2023-07-22T13:19:54;3.55;;;2.20;;
50968;SDS011;36982;51.474;7.228;2023-07-22T13:22:19;4.47;;;2.12;;
50968;SDS011;36982;51.474;7.228;2023-07-22T13:24:45;3.00;;;2.03;;
50968;SDS011;36982;51.474;7.228;2023-07-22T13:27:11;4.25;;;2.20;;
50968;SDS011;36982;51.474;7.228;2023-07-22T13:29:36;2.65;;;2.15;;
50968;SDS011;36982;51.474;7.228;2023-07-22T13:32:02;5.05;;;2.55;;
50968;SDS011;36982;51.474;7.228;2023-07-22T13:34:29;3.45;;;2.45;;
50968;SDS011;36982;51.474;7.228;2023-07-22T13:36:54;4.28;;;2.58;;
50968;SDS011;36982;51.474;7.228;2023-07-22T13:39:20;4.00;;;2.42;;
50968;SDS011;36982;51.474;7.228;2023-07-22T13:41:46;2.53;;;2.10;;
50968;SDS011;36982;51.474;7.228;2023-07-22T13:44:12;3.58;;;2.17;;
50968;SDS011;36982;51.474;7.228;2023-07-22T13:46:38;3.95;;;2.40;;
50968;SDS011;36982;51.474;7.228;2023-07-22T13:49:03;3.03;;;2.30;;
50968;SDS011;36982;51.474;7.228;2023-07-22T13:51:29;2.83;;;2.55;;
50968;SDS011;36982;51.474;7.228;2023-07-22T13:53:54;8.20;;;2.85;;
50968;SDS011;36982;51.474;7.228;2023-07-22T13:56:22;3.75;;;2.80;;
50968;SDS011;36982;51.474;7.228;2023-07-22T13:58:47;2.58;;;2.30;;
50968;SDS011;36982;51.474;7.228;2023-07-22T14:01:13;2.50;;;2.30;;
50968;SDS011;36982;51.474;7.228;2023-07-22T14:03:39;4.03;;;2.40;;
50968;SDS011;36982;51.474;7.228;2023-07-22T14:06:04;3.50;;;2.70;;
50968;SDS011;36982;51.474;7.228;2023-07-22T14:08:30;4.15;;;2.37;;
50968;SDS011;36982;51.474;7.228;2023-07-22T14:10:56;5.20;;;2.50;;
50968;SDS011;36982;51.474;7.228;2023-07-22T14:13:21;4.53;;;2.42;;
50968;SDS011;36982;51.474;7.228;2023-07-22T14:15:47;3.15;;;2.40;;
50968;SDS011;36982;51.474;7.228;2023-07-22T14:18:12;3.35;;;2.28;;
50968;SDS011;36982;51.474;7.228;2023-07-22T14:20:43;2.37;;;2.17;;
50968;SDS011;36982;51.474;7.228;2023-07-22T14:23:10;2.70;;;2.17;;
50968;SDS011;36982;51.474;7.228;2023-07-22T14:25:36;2.65;;;2.42;;
50968;SDS011;36982;51.474;7.228;2023-07-22T14:28:01;2.83;;;2.20;;
50968;SDS011;36982;51.474;7.228;2023-07-22T14:30:27;3.53;;;2.20;;
50968;SDS011;36982;51.474;7.228;2023-07-22T14:32:53;3.33;;;2.17;;
50968;SDS011;36982;51.474;7.228;2023-07-22T14:35:19;3.20;;;2.30;;
50968;SDS011;36982;51.474;7.228;2023-07-22T14:37:44;2.67;;;1.92;;
50968;SDS011;36982;51.474;7.228;2023-07-22T14:40:11;2.30;;;2.08;;
50968;SDS011;36982;51.474;7.228;2023-07-22T14:42:37;4.20;;;2.60;;
50968;SDS011;36982;51.474;7.228;2023-07-22T14:45:03;2.60;;;2.30;;
50968;SDS011;36982;51.474;7.228;2023-07-22T14:47:30;4.25;;;3.33;;
50968;SDS011;36982;51.474;7.228;2023-07-22T14:49:55;3.05;;;2.55;;
50968;SDS011;36982;51.474;7.228;2023-07-22T14:52:21;3.97;;;2.35;;
50968;SDS011;36982;51.474;7.228;2023-07-22T14:54:47;4.53;;;3.15;;
50968;SDS011;36982;51.474;7.228;2023-07-22T14:57:14;3.62;;;2.60;;